sensor_id;sensor_type;location;lat;lon;timestamp;P1;durP1;ratioP1;P2;durP2;ratioP2
36423;SDS011;22458;45.328;9.514;2022-09-20T00:00:42;5.85;;;3.97;;
36423;SDS011;22458;45.328;9.514;2022-09-20T00:03:09;4.63;;;3.70;;
36423;SDS011;22458;45.328;9.514;2022-09-20T00:05:37;5.90;;;4.25;;
36423;SDS011;22458;45.328;9.514;2022-09-20T00:08:05;4.30;;;3.50;;
36423;SDS011;22458;45.328;9.514;2022-09-20T00:13:07;4.82;;;3.45;;
36423;SDS011;22458;45.328;9.514;2022-09-20T00:15:42;4.03;;;3.28;;
36423;SDS011;22458;45.328;9.514;2022-09-20T00:18:10;4.57;;;3.42;;
36423;SDS011;22458;45.328;9.514;2022-09-20T00:20:43;4.90;;;3.20;;
36423;SDS011;22458;45.328;9.514;2022-09-20T00:23:13;4.65;;;3.30;;
36423;SDS011;22458;45.328;9.514;2022-09-20T00:25:39;4.57;;;3.03;;
36423;SDS011;22458;45.328;9.514;2022-09-20T00:28:05;4.65;;;3.25;;
36423;SDS011;22458;45.328;9.514;2022-09-20T00:30:31;4.40;;;2.92;;
36423;SDS011;22458;45.328;9.514;2022-09-20T00:32:57;4.60;;;2.85;;
36423;SDS011;22458;45.328;9.514;2022-09-20T00:35:24;3.55;;;2.35;;
36423;SDS011;22458;45.328;9.514;2022-09-20T00:37:49;4.68;;;3.42;;
36423;SDS011;22458;45.328;9.514;2022-09-20T00:40:16;4.95;;;3.05;;
36423;SDS011;22458;45.328;9.514;2022-09-20T00:42:47;5.18;;;3.10;;
36423;SDS011;22458;45.328;9.514;2022-09-20T00:45:24;3.78;;;2.95;;
36423;SDS011;22458;45.328;9.514;2022-09-20T00:47:54;3.97;;;2.50;;
36423;SDS011;22458;45.328;9.514;2022-09-20T00:50:39;3.80;;;2.63;;
36423;SDS011;22458;45.328;9.514;2022-09-20T00:53:18;3.05;;;2.42;;
36423;SDS011;22458;45.328;9.514;2022-09-20T00:56:07;3.50;;;2.70;;
36423;SDS011;22458;45.328;9.514;2022-09-20T00:58:36;5.20;;;2.78;;
36423;SDS011;22458;45.328;9.514;2022-09-20T01:01:07;2.90;;;2.60;;
36423;SDS011;22458;45.328;9.514;2022-09-20T01:03:34;3.65;;;2.55;;
36423;SDS011;22458;45.328;9.514;2022-09-20T01:06:03;3.38;;;2.40;;
36423;SDS011;22458;45.328;9.514;2022-09-20T01:08:32;2.47;;;2.25;;
36423;SDS011;22458;45.328;9.514;2022-09-20T01:10:59;4.53;;;2.47;;
36423;SDS011;22458;45.328;9.514;2022-09-20T01:13:25;3.53;;;2.30;;
36423;SDS011;22458;45.328;9.514;2022-09-20T01:15:51;3.38;;;2.35;;
36423;SDS011;22458;45.328;9.514;2022-09-20T01:18:18;4.38;;;2.55;;
36423;SDS011;22458;45.328;9.514;2022-09-20T01:20:46;3.47;;;2.50;;
36423;SDS011;22458;45.328;9.514;2022-09-20T01:29:24;3.45;;;2.53;;
36423;SDS011;22458;45.328;9.514;2022-09-20T01:32:18;4.43;;;2.00;;
36423;SDS011;22458;45.328;9.514;2022-09-20T01:34:49;3.20;;;2.30;;
36423;SDS011;22458;45.328;9.514;2022-09-20T01:40:04;3.00;;;2.08;;
36423;SDS011;22458;45.328;9.514;2022-09-20T01:43:01;3.45;;;2.10;;
36423;SDS011;22458;45.328;9.514;2022-09-20T01:45:47;3.08;;;2.25;;
36423;SDS011;22458;45.328;9.514;2022-09-20T02:13:09;5.55;;;2.08;;
36423;SDS011;22458;45.328;9.514;2022-09-20T02:16:05;2.97;;;1.63;;
36423;SDS011;22458;45.328;9.514;2022-09-20T02:18:52;3.83;;;2.35;;
36423;SDS011;22458;45.328;9.514;2022-09-20T02:24:28;2.38;;;1.92;;
36423;SDS011;22458;45.328;9.514;2022-09-20T02:27:13;3.63;;;1.88;;
36423;SDS011;22458;45.328;9.514;2022-09-20T02:30:16;3.15;;;2.30;;
36423;SDS011;22458;45.328;9.514;2022-09-20T02:39:10;4.10;;;2.47;;
36423;SDS011;22458;45.328;9.514;2022-09-20T02:41:45;4.53;;;2.38;;
36423;SDS011;22458;45.328;9.514;2022-09-20T02:44:25;6.72;;;3.38;;
36423;SDS011;22458;45.328;9.514;2022-09-20T02:47:14;4.18;;;3.17;;
36423;SDS011;22458;45.328;9.514;2022-09-20T02:55:49;3.35;;;2.53;;
36423;SDS011;22458;45.328;9.514;2022-09-20T03:12:48;4.28;;;2.53;;
36423;SDS011;22458;45.328;9.514;2022-09-20T03:29:31;4.50;;;2.85;;
36423;SDS011;22458;45.328;9.514;2022-09-20T03:32:04;3.40;;;2.45;;
36423;SDS011;22458;45.328;9.514;2022-09-20T03:35:11;4.40;;;3.03;;
36423;SDS011;22458;45.328;9.514;2022-09-20T03:37:59;3.13;;;2.47;;
36423;SDS011;22458;45.328;9.514;2022-09-20T03:42:57;2.90;;;2.35;;
36423;SDS011;22458;45.328;9.514;2022-09-20T03:46:06;3.45;;;2.92;;
36423;SDS011;22458;45.328;9.514;2022-09-20T04:04:57;3.55;;;2.75;;
36423;SDS011;22458;45.328;9.514;2022-09-20T04:07:39;5.15;;;3.35;;
36423;SDS011;22458;45.328;9.514;2022-09-20T04:16:06;4.22;;;2.58;;
36423;SDS011;22458;45.328;9.514;2022-09-20T04:18:57;3.05;;;2.47;;
36423;SDS011;22458;45.328;9.514;2022-09-20T04:21:31;3.65;;;2.60;;
36423;SDS011;22458;45.328;9.514;2022-09-20T04:24:22;4.32;;;2.60;;
36423;SDS011;22458;45.328;9.514;2022-09-20T04:27:02;4.97;;;2.15;;
36423;SDS011;22458;45.328;9.514;2022-09-20T04:29:43;5.18;;;3.22;;
36423;SDS011;22458;45.328;9.514;2022-09-20T04:38:30;5.00;;;3.30;;
36423;SDS011;22458;45.328;9.514;2022-09-20T04:52:54;4.88;;;3.42;;
36423;SDS011;22458;45.328;9.514;2022-09-20T05:17:14;4.47;;;2.80;;
36423;SDS011;22458;45.328;9.514;2022-09-20T05:31:16;4.35;;;2.97;;
36423;SDS011;22458;45.328;9.514;2022-09-20T05:36:37;3.33;;;2.63;;
36423;SDS011;22458;45.328;9.514;2022-09-20T05:39:22;3.58;;;2.60;;
36423;SDS011;22458;45.328;9.514;2022-09-20T05:42:13;4.63;;;3.38;;
36423;SDS011;22458;45.328;9.514;2022-09-20T05:47:22;6.55;;;3.10;;
36423;SDS011;22458;45.328;9.514;2022-09-20T05:52:40;3.83;;;2.92;;
36423;SDS011;22458;45.328;9.514;2022-09-20T05:58:13;5.10;;;3.33;;
36423;SDS011;22458;45.328;9.514;2022-09-20T06:00:48;3.80;;;2.97;;
36423;SDS011;22458;45.328;9.514;2022-09-20T06:06:01;4.43;;;3.08;;
36423;SDS011;22458;45.328;9.514;2022-09-20T06:14:23;4.97;;;3.22;;
36423;SDS011;22458;45.328;9.514;2022-09-20T06:16:58;3.95;;;3.53;;
36423;SDS011;22458;45.328;9.514;2022-09-20T06:22:15;6.88;;;2.97;;
36423;SDS011;22458;45.328;9.514;2022-09-20T06:24:55;4.45;;;3.05;;
36423;SDS011;22458;45.328;9.514;2022-09-20T06:27:25;3.00;;;2.35;;
36423;SDS011;22458;45.328;9.514;2022-09-20T06:29:59;2.47;;;1.90;;
36423;SDS011;22458;45.328;9.514;2022-09-20T06:32:30;3.13;;;2.22;;
36423;SDS011;22458;45.328;9.514;2022-09-20T06:34:56;2.55;;;2.35;;
36423;SDS011;22458;45.328;9.514;2022-09-20T06:37:34;3.17;;;2.13;;
36423;SDS011;22458;45.328;9.514;2022-09-20T06:40:47;4.22;;;2.30;;
36423;SDS011;22458;45.328;9.514;2022-09-20T06:43:43;3.90;;;2.58;;
36423;SDS011;22458;45.328;9.514;2022-09-20T06:46:09;5.05;;;1.95;;
36423;SDS011;22458;45.328;9.514;2022-09-20T06:48:37;2.92;;;2.10;;
36423;SDS011;22458;45.328;9.514;2022-09-20T06:51:04;1.92;;;1.58;;
36423;SDS011;22458;45.328;9.514;2022-09-20T06:53:34;2.35;;;1.85;;
36423;SDS011;22458;45.328;9.514;2022-09-20T06:56:02;5.00;;;1.83;;
36423;SDS011;22458;45.328;9.514;2022-09-20T06:58:28;1.85;;;1.35;;
36423;SDS011;22458;45.328;9.514;2022-09-20T07:00:54;2.80;;;1.90;;
36423;SDS011;22458;45.328;9.514;2022-09-20T07:03:19;2.00;;;1.60;;
36423;SDS011;22458;45.328;9.514;2022-09-20T07:05:45;1.85;;;1.27;;
36423;SDS011;22458;45.328;9.514;2022-09-20T07:08:12;4.30;;;1.65;;
36423;SDS011;22458;45.328;9.514;2022-09-20T07:10:38;2.67;;;1.25;;
36423;SDS011;22458;45.328;9.514;2022-09-20T07:13:04;2.60;;;1.63;;
36423;SDS011;22458;45.328;9.514;2022-09-20T07:15:30;1.88;;;1.50;;
36423;SDS011;22458;45.328;9.514;2022-09-20T07:17:57;1.55;;;1.10;;
36423;SDS011;22458;45.328;9.514;2022-09-20T07:20:24;2.78;;;1.50;;
36423;SDS011;22458;45.328;9.514;2022-09-20T07:22:50;2.22;;;1.20;;
36423;SDS011;22458;45.328;9.514;2022-09-20T07:25:17;1.80;;;1.20;;
36423;SDS011;22458;45.328;9.514;2022-09-20T07:27:44;3.35;;;1.30;;
36423;SDS011;22458;45.328;9.514;2022-09-20T07:30:11;1.60;;;1.05;;
36423;SDS011;22458;45.328;9.514;2022-09-20T07:32:38;2.13;;;1.58;;
36423;SDS011;22458;45.328;9.514;2022-09-20T07:35:06;2.13;;;1.40;;
36423;SDS011;22458;45.328;9.514;2022-09-20T07:37:33;2.10;;;0.80;;
36423;SDS011;22458;45.328;9.514;2022-09-20T07:39:59;1.67;;;0.95;;
36423;SDS011;22458;45.328;9.514;2022-09-20T07:42:25;4.25;;;1.00;;
36423;SDS011;22458;45.328;9.514;2022-09-20T07:44:51;0.95;;;0.68;;
36423;SDS011;22458;45.328;9.514;2022-09-20T07:47:17;2.72;;;1.30;;
36423;SDS011;22458;45.328;9.514;2022-09-20T07:49:42;1.75;;;0.73;;
36423;SDS011;22458;45.328;9.514;2022-09-20T07:52:09;1.75;;;1.00;;
36423;SDS011;22458;45.328;9.514;2022-09-20T07:54:35;1.27;;;0.90;;
36423;SDS011;22458;45.328;9.514;2022-09-20T07:57:01;5.15;;;1.17;;
36423;SDS011;22458;45.328;9.514;2022-09-20T07:59:27;2.10;;;1.20;;
36423;SDS011;22458;45.328;9.514;2022-09-20T08:01:53;6.07;;;0.93;;
36423;SDS011;22458;45.328;9.514;2022-09-20T08:04:19;0.93;;;0.77;;
36423;SDS011;22458;45.328;9.514;2022-09-20T08:06:44;2.33;;;0.90;;
36423;SDS011;22458;45.328;9.514;2022-09-20T08:09:12;1.40;;;0.60;;
36423;SDS011;22458;45.328;9.514;2022-09-20T08:11:39;1.88;;;1.00;;
36423;SDS011;22458;45.328;9.514;2022-09-20T08:14:08;1.60;;;1.25;;
36423;SDS011;22458;45.328;9.514;2022-09-20T08:16:40;2.47;;;0.77;;
36423;SDS011;22458;45.328;9.514;2022-09-20T08:19:07;2.00;;;0.90;;
36423;SDS011;22458;45.328;9.514;2022-09-20T08:21:38;1.80;;;0.80;;
36423;SDS011;22458;45.328;9.514;2022-09-20T08:24:03;1.40;;;0.70;;
36423;SDS011;22458;45.328;9.514;2022-09-20T08:26:29;1.50;;;0.60;;
36423;SDS011;22458;45.328;9.514;2022-09-20T08:28:56;2.78;;;1.10;;
36423;SDS011;22458;45.328;9.514;2022-09-20T08:31:27;1.45;;;0.70;;
36423;SDS011;22458;45.328;9.514;2022-09-20T08:34:00;1.35;;;0.57;;
36423;SDS011;22458;45.328;9.514;2022-09-20T08:36:28;2.78;;;0.90;;
36423;SDS011;22458;45.328;9.514;2022-09-20T08:38:55;2.65;;;0.70;;
36423;SDS011;22458;45.328;9.514;2022-09-20T08:41:23;1.35;;;0.60;;
36423;SDS011;22458;45.328;9.514;2022-09-20T08:44:01;1.15;;;0.63;;
36423;SDS011;22458;45.328;9.514;2022-09-20T08:46:50;1.40;;;0.60;;
36423;SDS011;22458;45.328;9.514;2022-09-20T08:49:26;1.05;;;0.70;;
36423;SDS011;22458;45.328;9.514;2022-09-20T08:51:54;4.22;;;1.27;;
36423;SDS011;22458;45.328;9.514;2022-09-20T08:54:23;0.80;;;0.55;;
36423;SDS011;22458;45.328;9.514;2022-09-20T08:56:50;3.75;;;0.80;;
36423;SDS011;22458;45.328;9.514;2022-09-20T08:59:17;1.55;;;0.70;;
36423;SDS011;22458;45.328;9.514;2022-09-20T09:01:46;2.40;;;0.52;;
36423;SDS011;22458;45.328;9.514;2022-09-20T09:04:15;1.23;;;0.70;;
36423;SDS011;22458;45.328;9.514;2022-09-20T09:06:46;1.40;;;0.88;;
36423;SDS011;22458;45.328;9.514;2022-09-20T09:09:22;2.15;;;0.80;;
36423;SDS011;22458;45.328;9.514;2022-09-20T09:11:52;1.73;;;0.50;;
36423;SDS011;22458;45.328;9.514;2022-09-20T09:14:32;1.10;;;0.60;;
36423;SDS011;22458;45.328;9.514;2022-09-20T09:17:16;1.80;;;0.90;;
36423;SDS011;22458;45.328;9.514;2022-09-20T09:19:50;1.17;;;0.70;;
36423;SDS011;22458;45.328;9.514;2022-09-20T09:22:30;1.95;;;0.80;;
36423;SDS011;22458;45.328;9.514;2022-09-20T09:25:12;0.68;;;0.40;;
36423;SDS011;22458;45.328;9.514;2022-09-20T09:27:50;0.77;;;0.47;;
36423;SDS011;22458;45.328;9.514;2022-09-20T09:30:34;0.95;;;0.45;;
36423;SDS011;22458;45.328;9.514;2022-09-20T09:35:51;1.15;;;0.60;;
36423;SDS011;22458;45.328;9.514;2022-09-20T09:38:31;1.40;;;0.50;;
36423;SDS011;22458;45.328;9.514;2022-09-20T09:41:27;0.95;;;0.60;;
36423;SDS011;22458;45.328;9.514;2022-09-20T09:43:58;1.98;;;0.73;;
36423;SDS011;22458;45.328;9.514;2022-09-20T09:46:25;0.80;;;0.40;;
36423;SDS011;22458;45.328;9.514;2022-09-20T09:49:11;2.72;;;0.70;;
36423;SDS011;22458;45.328;9.514;2022-09-20T09:51:40;4.38;;;0.70;;
36423;SDS011;22458;45.328;9.514;2022-09-20T09:54:35;1.52;;;0.60;;
36423;SDS011;22458;45.328;9.514;2022-09-20T09:57:06;1.48;;;0.60;;
36423;SDS011;22458;45.328;9.514;2022-09-20T10:02:41;0.63;;;0.50;;
36423;SDS011;22458;45.328;9.514;2022-09-20T10:08:22;1.23;;;0.70;;
36423;SDS011;22458;45.328;9.514;2022-09-20T10:10:58;1.88;;;0.65;;
36423;SDS011;22458;45.328;9.514;2022-09-20T10:13:43;0.80;;;0.40;;
36423;SDS011;22458;45.328;9.514;2022-09-20T10:21:49;0.88;;;0.40;;
36423;SDS011;22458;45.328;9.514;2022-09-20T10:30:21;0.85;;;0.45;;
36423;SDS011;22458;45.328;9.514;2022-09-20T10:38:40;1.52;;;0.50;;
36423;SDS011;22458;45.328;9.514;2022-09-20T10:46:55;3.22;;;0.60;;
36423;SDS011;22458;45.328;9.514;2022-09-20T10:49:34;0.60;;;0.47;;
36423;SDS011;22458;45.328;9.514;2022-09-20T11:00:35;2.60;;;0.73;;
36423;SDS011;22458;45.328;9.514;2022-09-20T11:03:21;1.13;;;0.63;;
36423;SDS011;22458;45.328;9.514;2022-09-20T11:05:58;2.20;;;0.40;;
36423;SDS011;22458;45.328;9.514;2022-09-20T11:08:45;1.77;;;0.40;;
36423;SDS011;22458;45.328;9.514;2022-09-20T11:11:25;1.35;;;0.70;;
36423;SDS011;22458;45.328;9.514;2022-09-20T11:14:12;1.20;;;0.75;;
36423;SDS011;22458;45.328;9.514;2022-09-20T11:22:14;1.23;;;0.40;;
36423;SDS011;22458;45.328;9.514;2022-09-20T11:24:49;0.88;;;0.47;;
36423;SDS011;22458;45.328;9.514;2022-09-20T11:27:42;1.00;;;0.30;;
36423;SDS011;22458;45.328;9.514;2022-09-20T11:30:16;1.13;;;0.40;;
36423;SDS011;22458;45.328;9.514;2022-09-20T11:37:40;0.88;;;0.40;;
36423;SDS011;22458;45.328;9.514;2022-09-20T11:42:46;1.13;;;0.57;;
36423;SDS011;22458;45.328;9.514;2022-09-20T11:45:14;2.40;;;0.73;;
36423;SDS011;22458;45.328;9.514;2022-09-20T11:55:40;0.82;;;0.50;;
36423;SDS011;22458;45.328;9.514;2022-09-20T11:58:11;1.13;;;0.40;;
36423;SDS011;22458;45.328;9.514;2022-09-20T12:00:42;1.30;;;0.65;;
36423;SDS011;22458;45.328;9.514;2022-09-20T12:06:20;2.35;;;0.47;;
36423;SDS011;22458;45.328;9.514;2022-09-20T12:08:54;1.00;;;0.50;;
36423;SDS011;22458;45.328;9.514;2022-09-20T12:11:35;1.42;;;0.68;;
36423;SDS011;22458;45.328;9.514;2022-09-20T12:14:06;3.20;;;0.70;;
36423;SDS011;22458;45.328;9.514;2022-09-20T12:16:46;2.95;;;0.52;;
36423;SDS011;22458;45.328;9.514;2022-09-20T12:19:13;1.55;;;0.60;;
36423;SDS011;22458;45.328;9.514;2022-09-20T12:24:35;1.27;;;0.63;;
36423;SDS011;22458;45.328;9.514;2022-09-20T12:30:25;1.27;;;0.50;;
36423;SDS011;22458;45.328;9.514;2022-09-20T12:32:54;1.60;;;0.60;;
36423;SDS011;22458;45.328;9.514;2022-09-20T12:40:58;1.38;;;0.60;;
36423;SDS011;22458;45.328;9.514;2022-09-20T12:43:33;2.15;;;0.50;;
36423;SDS011;22458;45.328;9.514;2022-09-20T12:46:02;1.25;;;0.68;;
36423;SDS011;22458;45.328;9.514;2022-09-20T12:48:31;1.90;;;0.55;;
36423;SDS011;22458;45.328;9.514;2022-09-20T12:51:21;1.35;;;0.73;;
36423;SDS011;22458;45.328;9.514;2022-09-20T12:54:13;1.67;;;0.95;;
36423;SDS011;22458;45.328;9.514;2022-09-20T12:56:39;1.85;;;0.80;;
36423;SDS011;22458;45.328;9.514;2022-09-20T12:59:17;1.17;;;0.50;;
36423;SDS011;22458;45.328;9.514;2022-09-20T13:01:51;0.98;;;0.60;;
36423;SDS011;22458;45.328;9.514;2022-09-20T13:10:01;2.42;;;0.70;;
36423;SDS011;22458;45.328;9.514;2022-09-20T13:12:39;1.05;;;0.50;;
36423;SDS011;22458;45.328;9.514;2022-09-20T13:15:06;2.47;;;0.70;;
36423;SDS011;22458;45.328;9.514;2022-09-20T13:17:41;1.13;;;0.60;;
36423;SDS011;22458;45.328;9.514;2022-09-20T13:20:14;2.83;;;0.60;;
36423;SDS011;22458;45.328;9.514;2022-09-20T13:22:43;1.02;;;0.60;;
36423;SDS011;22458;45.328;9.514;2022-09-20T13:25:12;0.85;;;0.40;;
36423;SDS011;22458;45.328;9.514;2022-09-20T13:27:41;1.02;;;0.52;;
36423;SDS011;22458;45.328;9.514;2022-09-20T13:32:43;2.25;;;0.80;;
36423;SDS011;22458;45.328;9.514;2022-09-20T13:37:56;2.15;;;0.68;;
36423;SDS011;22458;45.328;9.514;2022-09-20T13:43:49;1.65;;;0.70;;
36423;SDS011;22458;45.328;9.514;2022-09-20T13:45:56;1.60;;;0.80;;
36423;SDS011;22458;45.328;9.514;2022-09-20T13:48:26;1.60;;;0.90;;
36423;SDS011;22458;45.328;9.514;2022-09-20T13:50:54;1.38;;;0.68;;
36423;SDS011;22458;45.328;9.514;2022-09-20T13:55:49;2.35;;;0.73;;
36423;SDS011;22458;45.328;9.514;2022-09-20T13:58:25;1.10;;;0.55;;
36423;SDS011;22458;45.328;9.514;2022-09-20T14:00:54;1.10;;;0.55;;
36423;SDS011;22458;45.328;9.514;2022-09-20T14:05:54;1.67;;;0.60;;
36423;SDS011;22458;45.328;9.514;2022-09-20T14:08:25;1.73;;;0.75;;
36423;SDS011;22458;45.328;9.514;2022-09-20T14:13:40;0.73;;;0.50;;
36423;SDS011;22458;45.328;9.514;2022-09-20T14:16:15;1.77;;;0.50;;
36423;SDS011;22458;45.328;9.514;2022-09-20T14:18:43;1.42;;;0.50;;
36423;SDS011;22458;45.328;9.514;2022-09-20T14:21:13;0.88;;;0.45;;
36423;SDS011;22458;45.328;9.514;2022-09-20T14:23:52;1.05;;;0.40;;
36423;SDS011;22458;45.328;9.514;2022-09-20T14:26:22;1.70;;;0.80;;
36423;SDS011;22458;45.328;9.514;2022-09-20T14:31:26;0.93;;;0.60;;
36423;SDS011;22458;45.328;9.514;2022-09-20T14:33:58;1.30;;;0.52;;
36423;SDS011;22458;45.328;9.514;2022-09-20T14:36:27;2.10;;;0.80;;
36423;SDS011;22458;45.328;9.514;2022-09-20T14:38:58;2.85;;;0.70;;
36423;SDS011;22458;45.328;9.514;2022-09-20T14:41:33;1.75;;;0.95;;
36423;SDS011;22458;45.328;9.514;2022-09-20T14:44:02;1.35;;;0.70;;
36423;SDS011;22458;45.328;9.514;2022-09-20T14:46:33;1.08;;;0.60;;
36423;SDS011;22458;45.328;9.514;2022-09-20T14:54:59;0.95;;;0.68;;
36423;SDS011;22458;45.328;9.514;2022-09-20T14:57:34;1.75;;;0.93;;
36423;SDS011;22458;45.328;9.514;2022-09-20T15:00:04;0.90;;;0.60;;
36423;SDS011;22458;45.328;9.514;2022-09-20T15:02:35;1.83;;;0.80;;
36423;SDS011;22458;45.328;9.514;2022-09-20T15:05:03;2.95;;;1.08;;
36423;SDS011;22458;45.328;9.514;2022-09-20T15:07:29;1.02;;;0.70;;
36423;SDS011;22458;45.328;9.514;2022-09-20T15:09:55;1.48;;;0.70;;
36423;SDS011;22458;45.328;9.514;2022-09-20T15:12:20;1.35;;;0.80;;
36423;SDS011;22458;45.328;9.514;2022-09-20T15:14:46;4.72;;;0.98;;
36423;SDS011;22458;45.328;9.514;2022-09-20T15:17:14;1.23;;;0.77;;
36423;SDS011;22458;45.328;9.514;2022-09-20T15:19:44;1.33;;;0.80;;
36423;SDS011;22458;45.328;9.514;2022-09-20T15:22:10;1.33;;;0.73;;
36423;SDS011;22458;45.328;9.514;2022-09-20T15:24:36;1.27;;;0.80;;
36423;SDS011;22458;45.328;9.514;2022-09-20T15:27:03;2.15;;;0.60;;
36423;SDS011;22458;45.328;9.514;2022-09-20T15:29:28;1.23;;;0.50;;
36423;SDS011;22458;45.328;9.514;2022-09-20T15:31:55;1.63;;;0.60;;
36423;SDS011;22458;45.328;9.514;2022-09-20T15:34:20;1.55;;;0.80;;
36423;SDS011;22458;45.328;9.514;2022-09-20T15:36:46;1.15;;;0.70;;
36423;SDS011;22458;45.328;9.514;2022-09-20T15:39:12;2.45;;;0.77;;
36423;SDS011;22458;45.328;9.514;2022-09-20T15:41:39;2.88;;;1.02;;
36423;SDS011;22458;45.328;9.514;2022-09-20T15:44:05;2.25;;;1.00;;
36423;SDS011;22458;45.328;9.514;2022-09-20T15:46:32;1.02;;;0.73;;
36423;SDS011;22458;45.328;9.514;2022-09-20T15:48:59;2.63;;;0.95;;
36423;SDS011;22458;45.328;9.514;2022-09-20T15:51:26;1.17;;;0.73;;
36423;SDS011;22458;45.328;9.514;2022-09-20T15:53:55;1.85;;;0.60;;
36423;SDS011;22458;45.328;9.514;2022-09-20T15:56:27;2.03;;;0.70;;
36423;SDS011;22458;45.328;9.514;2022-09-20T15:59:04;2.78;;;0.88;;
36423;SDS011;22458;45.328;9.514;2022-09-20T16:01:35;1.10;;;0.70;;
36423;SDS011;22458;45.328;9.514;2022-09-20T16:04:07;1.48;;;0.70;;
36423;SDS011;22458;45.328;9.514;2022-09-20T16:06:38;2.30;;;0.80;;
36423;SDS011;22458;45.328;9.514;2022-09-20T16:09:05;3.63;;;0.85;;
36423;SDS011;22458;45.328;9.514;2022-09-20T16:11:32;1.33;;;0.70;;
36423;SDS011;22458;45.328;9.514;2022-09-20T16:13:59;1.88;;;0.82;;
36423;SDS011;22458;45.328;9.514;2022-09-20T16:16:25;2.10;;;0.55;;
36423;SDS011;22458;45.328;9.514;2022-09-20T16:18:53;1.42;;;0.82;;
36423;SDS011;22458;45.328;9.514;2022-09-20T16:21:38;4.15;;;0.93;;
36423;SDS011;22458;45.328;9.514;2022-09-20T16:24:05;2.23;;;0.60;;
36423;SDS011;22458;45.328;9.514;2022-09-20T16:26:32;1.30;;;0.70;;
36423;SDS011;22458;45.328;9.514;2022-09-20T16:28:59;1.10;;;0.60;;
36423;SDS011;22458;45.328;9.514;2022-09-20T16:31:35;3.15;;;0.70;;
36423;SDS011;22458;45.328;9.514;2022-09-20T16:36:47;1.10;;;0.60;;
36423;SDS011;22458;45.328;9.514;2022-09-20T16:39:15;2.45;;;0.65;;
36423;SDS011;22458;45.328;9.514;2022-09-20T16:41:43;1.75;;;0.60;;
36423;SDS011;22458;45.328;9.514;2022-09-20T16:44:11;0.73;;;0.52;;
36423;SDS011;22458;45.328;9.514;2022-09-20T16:46:37;6.25;;;0.85;;
36423;SDS011;22458;45.328;9.514;2022-09-20T16:49:04;1.08;;;0.60;;
36423;SDS011;22458;45.328;9.514;2022-09-20T16:51:32;1.58;;;0.73;;
36423;SDS011;22458;45.328;9.514;2022-09-20T16:54:00;2.25;;;1.00;;
36423;SDS011;22458;45.328;9.514;2022-09-20T16:56:28;3.53;;;0.95;;
36423;SDS011;22458;45.328;9.514;2022-09-20T16:59:01;1.95;;;0.60;;
36423;SDS011;22458;45.328;9.514;2022-09-20T17:01:29;1.75;;;0.77;;
36423;SDS011;22458;45.328;9.514;2022-09-20T17:03:56;1.58;;;0.82;;
36423;SDS011;22458;45.328;9.514;2022-09-20T17:06:23;3.70;;;0.70;;
36423;SDS011;22458;45.328;9.514;2022-09-20T17:08:53;2.60;;;0.88;;
36423;SDS011;22458;45.328;9.514;2022-09-20T17:11:23;2.58;;;0.75;;
36423;SDS011;22458;45.328;9.514;2022-09-20T17:13:51;2.35;;;0.70;;
36423;SDS011;22458;45.328;9.514;2022-09-20T17:16:21;1.63;;;0.95;;
36423;SDS011;22458;45.328;9.514;2022-09-20T17:19:05;4.10;;;1.30;;
36423;SDS011;22458;45.328;9.514;2022-09-20T17:21:33;3.00;;;1.25;;
36423;SDS011;22458;45.328;9.514;2022-09-20T17:24:00;2.13;;;0.90;;
36423;SDS011;22458;45.328;9.514;2022-09-20T17:26:32;4.47;;;0.90;;
36423;SDS011;22458;45.328;9.514;2022-09-20T17:29:01;3.40;;;1.75;;
36423;SDS011;22458;45.328;9.514;2022-09-20T17:31:31;1.85;;;1.00;;
36423;SDS011;22458;45.328;9.514;2022-09-20T17:33:59;2.55;;;0.88;;
36423;SDS011;22458;45.328;9.514;2022-09-20T17:36:30;1.58;;;0.90;;
36423;SDS011;22458;45.328;9.514;2022-09-20T17:38:58;2.92;;;1.23;;
36423;SDS011;22458;45.328;9.514;2022-09-20T17:41:31;2.03;;;0.90;;
36423;SDS011;22458;45.328;9.514;2022-09-20T17:44:01;1.77;;;0.75;;
36423;SDS011;22458;45.328;9.514;2022-09-20T17:46:34;2.20;;;1.20;;
36423;SDS011;22458;45.328;9.514;2022-09-20T17:49:05;1.90;;;0.90;;
36423;SDS011;22458;45.328;9.514;2022-09-20T17:51:34;1.27;;;0.80;;
36423;SDS011;22458;45.328;9.514;2022-09-20T17:54:01;3.05;;;1.30;;
36423;SDS011;22458;45.328;9.514;2022-09-20T17:56:28;2.17;;;1.10;;
36423;SDS011;22458;45.328;9.514;2022-09-20T17:58:59;2.00;;;1.13;;
36423;SDS011;22458;45.328;9.514;2022-09-20T18:01:26;1.65;;;1.23;;
36423;SDS011;22458;45.328;9.514;2022-09-20T18:03:53;2.42;;;1.00;;
36423;SDS011;22458;45.328;9.514;2022-09-20T18:08:58;1.10;;;0.98;;
36423;SDS011;22458;45.328;9.514;2022-09-20T18:11:29;3.95;;;2.70;;
36423;SDS011;22458;45.328;9.514;2022-09-20T18:13:59;18.42;;;10.90;;
36423;SDS011;22458;45.328;9.514;2022-09-20T18:16:26;19.45;;;10.10;;
36423;SDS011;22458;45.328;9.514;2022-09-20T18:18:52;19.00;;;10.90;;
36423;SDS011;22458;45.328;9.514;2022-09-20T18:21:19;15.75;;;10.23;;
36423;SDS011;22458;45.328;9.514;2022-09-20T18:23:47;12.20;;;8.32;;
36423;SDS011;22458;45.328;9.514;2022-09-20T18:26:16;23.15;;;12.48;;
36423;SDS011;22458;45.328;9.514;2022-09-20T18:29:00;39.58;;;20.48;;
36423;SDS011;22458;45.328;9.514;2022-09-20T18:31:37;24.25;;;14.18;;
36423;SDS011;22458;45.328;9.514;2022-09-20T18:34:13;19.23;;;11.15;;
36423;SDS011;22458;45.328;9.514;2022-09-20T18:36:42;15.95;;;9.32;;
36423;SDS011;22458;45.328;9.514;2022-09-20T18:39:15;11.70;;;6.75;;
36423;SDS011;22458;45.328;9.514;2022-09-20T18:41:41;7.90;;;5.10;;
36423;SDS011;22458;45.328;9.514;2022-09-20T18:44:09;5.63;;;3.05;;
36423;SDS011;22458;45.328;9.514;2022-09-20T18:46:37;4.10;;;2.58;;
36423;SDS011;22458;45.328;9.514;2022-09-20T18:49:05;4.00;;;2.83;;
36423;SDS011;22458;45.328;9.514;2022-09-20T18:51:32;3.92;;;1.90;;
36423;SDS011;22458;45.328;9.514;2022-09-20T18:53:58;5.18;;;2.30;;
36423;SDS011;22458;45.328;9.514;2022-09-20T18:56:25;4.55;;;2.10;;
36423;SDS011;22458;45.328;9.514;2022-09-20T18:58:55;3.25;;;2.05;;
36423;SDS011;22458;45.328;9.514;2022-09-20T19:04:00;3.72;;;3.08;;
36423;SDS011;22458;45.328;9.514;2022-09-20T19:06:46;4.03;;;2.47;;
36423;SDS011;22458;45.328;9.514;2022-09-20T19:09:36;2.53;;;2.28;;
36423;SDS011;22458;45.328;9.514;2022-09-20T19:24:14;3.97;;;2.10;;
36423;SDS011;22458;45.328;9.514;2022-09-20T19:26:23;3.72;;;2.47;;
36423;SDS011;22458;45.328;9.514;2022-09-20T19:28:52;5.97;;;2.63;;
36423;SDS011;22458;45.328;9.514;2022-09-20T19:31:24;4.03;;;2.72;;
36423;SDS011;22458;45.328;9.514;2022-09-20T19:33:53;3.60;;;2.25;;
36423;SDS011;22458;45.328;9.514;2022-09-20T19:36:21;4.25;;;2.25;;
36423;SDS011;22458;45.328;9.514;2022-09-20T19:52:21;3.30;;;2.35;;
36423;SDS011;22458;45.328;9.514;2022-09-20T19:54:48;3.13;;;2.38;;
36423;SDS011;22458;45.328;9.514;2022-09-20T19:57:19;3.50;;;2.60;;
36423;SDS011;22458;45.328;9.514;2022-09-20T19:59:50;3.50;;;2.65;;
36423;SDS011;22458;45.328;9.514;2022-09-20T20:02:16;4.30;;;2.50;;
36423;SDS011;22458;45.328;9.514;2022-09-20T20:04:42;3.13;;;2.60;;
36423;SDS011;22458;45.328;9.514;2022-09-20T20:10:01;5.72;;;2.50;;
36423;SDS011;22458;45.328;9.514;2022-09-20T20:15:32;3.08;;;2.50;;
36423;SDS011;22458;45.328;9.514;2022-09-20T20:20:31;3.70;;;2.65;;
36423;SDS011;22458;45.328;9.514;2022-09-20T20:28:30;3.95;;;2.80;;
36423;SDS011;22458;45.328;9.514;2022-09-20T20:30:56;4.32;;;2.70;;
36423;SDS011;22458;45.328;9.514;2022-09-20T20:33:26;7.78;;;3.13;;
36423;SDS011;22458;45.328;9.514;2022-09-20T20:35:59;3.20;;;2.50;;
36423;SDS011;22458;45.328;9.514;2022-09-20T20:38:25;4.38;;;2.65;;
36423;SDS011;22458;45.328;9.514;2022-09-20T20:43:30;4.38;;;2.83;;
36423;SDS011;22458;45.328;9.514;2022-09-20T20:45:57;3.30;;;2.97;;
36423;SDS011;22458;45.328;9.514;2022-09-20T20:48:22;5.93;;;3.35;;
36423;SDS011;22458;45.328;9.514;2022-09-20T20:50:57;3.22;;;2.47;;